Time;durP1;ratioP1;P1;durP2;ratioP2;P2;SDS_P1;SDS_P2;PMS_P1;PMS_P2;Temp;Humidity;BMP_temperature;BMP_pressure;BME280_temperature;BME280_humidity;BME280_pressure;Samples;Min_cycle;Max_cycle;Signal;HPM_P1;HPM_P2
2021/04/10 00:00:30;;;;;;;7.33;4.78;;;;;;;7.77;56.66;97905.75;3676295;80;43451;-25
2021/04/10 00:05:36;;;;;;;8.80;5.20;;;;;;;7.69;57.85;97895.80;3666246;80;43162;-26
2021/04/10 00:10:44;;;;;;;7.73;5.03;;;;;;;7.61;58.50;97892.55;3669909;80;44008;-26
2021/04/10 00:15:51;;;;;;;7.27;5.00;;;;;;;7.55;58.18;97881.13;3678482;80;44184;-26
2021/04/10 00:20:56;;;;;;;8.60;4.85;;;;;;;7.63;58.29;97871.80;3670702;80;43372;-26
2021/04/10 00:26:03;;;;;;;9.10;5.00;;;;;;;7.62;58.17;97874.13;3668275;80;43025;-26
2021/04/10 00:31:09;;;;;;;6.62;5.08;;;;;;;7.54;59.32;97858.00;3669253;80;44432;-26
2021/04/10 00:36:15;;;;;;;7.37;4.67;;;;;;;7.57;59.99;97844.29;3704088;77;43999;-26
2021/04/10 00:41:21;;;;;;;9.43;4.72;;;;;;;7.58;59.04;97842.44;3751564;78;42866;-26
2021/04/10 00:46:27;;;;;;;8.10;4.70;;;;;;;7.62;58.70;97832.58;3755263;78;43695;-26
2021/04/10 00:51:33;;;;;;;6.00;4.62;;;;;;;7.65;58.14;97831.41;3745330;78;44112;-26
2021/04/10 00:56:39;;;;;;;6.72;4.60;;;;;;;7.71;57.54;97826.78;3758123;78;43991;-26
2021/04/10 01:01:45;;;;;;;6.17;4.20;;;;;;;7.82;57.07;97821.66;3752533;78;43459;-26
2021/04/10 01:06:51;;;;;;;6.87;4.30;;;;;;;7.79;57.49;97816.61;3747123;78;42939;-26
2021/04/10 01:12:06;;;;;;;7.45;4.47;;;;;;;7.69;57.43;97826.09;3749644;78;44172;-27
2021/04/10 01:17:16;;;;;;;7.90;5.00;;;;;;;7.66;59.90;97829.08;3734662;78;43974;-27
2021/04/10 01:22:33;;;;;;;9.40;5.05;;;;;;;7.58;59.50;97831.23;3737228;78;43742;-28
2021/04/10 01:27:41;;;;;;;6.37;4.70;;;;;;;7.55;61.14;97832.88;3733135;78;43358;-26
2021/04/10 01:32:51;;;;;;;8.60;5.63;;;;;;;7.55;62.24;97831.53;3734013;78;43357;-26
2021/04/10 01:38:02;;;;;;;5.97;4.37;;;;;;;7.54;62.89;97825.83;3742983;78;43272;-26
2021/04/10 01:43:09;;;;;;;11.45;5.03;;;;;;;7.50;64.04;97824.45;3766891;78;43720;-26
2021/04/10 01:48:18;;;;;;;6.65;4.33;;;;;;;7.44;64.65;97815.20;3777364;76;43143;-27
2021/04/10 01:53:24;;;;;;;6.65;4.00;;;;;;;7.44;64.70;97814.37;3761833;78;44357;-26
2021/04/10 01:58:31;;;;;;;5.23;4.13;;;;;;;7.43;65.09;97815.36;3770813;77;69436;-26
2021/04/10 02:03:39;;;;;;;6.55;4.40;;;;;;;7.42;66.31;97811.00;3759961;78;43963;-26
2021/04/10 02:08:47;;;;;;;6.65;4.50;;;;;;;7.34;67.74;97793.88;3771284;77;43058;-26
2021/04/10 02:13:58;;;;;;;6.55;4.50;;;;;;;7.33;69.74;97774.77;3748099;77;26364;-26
2021/04/10 02:19:06;;;;;;;6.37;4.53;;;;;;;7.35;70.51;97784.81;3735015;78;26984;-26
2021/04/10 02:24:14;;;;;;;7.17;4.22;;;;;;;7.37;69.53;97777.98;3739257;78;44140;-26
2021/04/10 02:29:22;;;;;;;6.77;3.80;;;;;;;7.37;70.09;97766.74;3746975;78;26548;-27
2021/04/10 02:34:31;;;;;;;6.83;4.40;;;;;;;7.38;69.30;97781.83;3734452;78;43683;-27
2021/04/10 02:39:42;;;;;;;8.30;4.80;;;;;;;7.43;68.47;97796.61;3736022;78;69013;-23
2021/04/10 02:44:52;;;;;;;6.90;4.60;;;;;;;7.45;67.98;97788.73;3743164;78;43695;-26
2021/04/10 02:50:02;;;;;;;7.47;4.90;;;;;;;7.43;70.22;97788.56;3736964;78;43365;-25
2021/04/10 02:55:13;;;;;;;6.77;4.40;;;;;;;7.43;70.12;97791.24;3730690;78;27034;-26
2021/04/10 03:00:25;;;;;;;7.53;4.70;;;;;;;7.39;69.75;97811.65;3739521;78;43674;-26
2021/04/10 03:05:33;;;;;;;8.43;5.23;;;;;;;7.38;71.28;97821.20;3731466;78;44397;-24
2021/04/10 03:10:39;;;;;;;8.85;6.35;;;;;;;7.16;78.47;97826.53;3733548;78;44030;-26
2021/04/10 03:15:46;;;;;;;9.25;6.30;;;;;;;6.24;94.35;97819.91;3737503;78;44145;-26
2021/04/10 03:20:53;;;;;;;8.37;5.40;;;;;;;6.30;94.20;97811.27;3740220;78;43109;-26
2021/04/10 03:26:01;;;;;;;6.73;4.97;;;;;;;6.30;95.89;97823.30;3595388;81;43960;-26
2021/04/10 03:31:10;;;;;;;6.87;5.70;;;;;;;6.41;98.50;97827.63;3727143;78;26443;-26
2021/04/10 03:36:16;;;;;;;10.33;6.60;;;;;;;6.26;100.00;97814.74;3765624;77;43678;-26
2021/04/10 03:41:23;;;;;;;8.93;6.62;;;;;;;6.15;100.00;97802.91;3779986;77;42486;-26
2021/04/10 03:46:31;;;;;;;8.93;6.20;;;;;;;5.97;100.00;97808.16;3770224;77;43749;-27
2021/04/10 03:51:36;;;;;;;9.77;6.80;;;;;;;6.06;100.00;97820.67;3778465;77;43665;-26
2021/04/10 03:56:43;;;;;;;11.40;8.10;;;;;;;5.97;100.00;97824.20;3776705;77;44003;-26
2021/04/10 04:01:50;;;;;;;11.53;8.13;;;;;;;5.65;100.00;97862.86;3771079;77;26506;-26
2021/04/10 04:06:57;;;;;;;10.87;8.10;;;;;;;5.39;100.00;97870.13;3779235;77;44014;-27
2021/04/10 04:12:04;;;;;;;12.73;8.57;;;;;;;5.38;100.00;97875.12;3777936;77;43373;-27
2021/04/10 04:17:10;;;;;;;12.30;8.53;;;;;;;5.28;100.00;97877.81;3780872;77;42741;-27
2021/04/10 04:22:16;;;;;;;13.77;8.60;;;;;;;5.12;100.00;97877.53;3781131;77;75344;-27
2021/04/10 04:27:21;;;;;;;14.30;9.37;;;;;;;5.15;100.00;97870.07;3773547;77;44108;-27
2021/04/10 04:32:27;;;;;;;16.93;9.57;;;;;;;5.14;100.00;97873.72;3762827;77;43706;-27
2021/04/10 04:37:34;;;;;;;13.47;9.87;;;;;;;5.19;100.00;97879.50;3758523;77;44051;-27
2021/04/10 04:42:43;;;;;;;14.70;9.83;;;;;;;5.14;100.00;97883.07;3726543;78;43689;-27
2021/04/10 04:47:49;;;;;;;16.53;10.33;;;;;;;5.09;100.00;97885.33;3731704;78;44021;-26
2021/04/10 04:52:54;;;;;;;15.73;11.37;;;;;;;5.10;100.00;97889.69;3730655;78;44022;-27
2021/04/10 04:58:00;;;;;;;15.97;10.77;;;;;;;5.13;100.00;97884.05;3729842;78;43722;-27
2021/04/10 05:03:06;;;;;;;16.93;10.93;;;;;;;5.09;100.00;97896.02;3731362;78;43758;-27
2021/04/10 05:08:12;;;;;;;17.47;11.30;;;;;;;5.10;100.00;97891.03;3737641;78;43326;-26
2021/04/10 05:13:18;;;;;;;19.60;11.67;;;;;;;5.12;100.00;97885.03;3735168;78;42736;-27
2021/04/10 05:18:24;;;;;;;17.50;11.07;;;;;;;5.12;100.00;97901.55;3721729;78;43303;-28
2021/04/10 05:23:29;;;;;;;18.40;10.80;;;;;;;5.16;100.00;97909.14;3765348;78;43709;-27
2021/04/10 05:28:35;;;;;;;16.33;11.53;;;;;;;5.19;100.00;97918.70;3728513;78;43718;-26
2021/04/10 05:33:43;;;;;;;17.27;11.40;;;;;;;5.18;100.00;97933.03;3753251;78;44446;-26
2021/04/10 05:38:49;;;;;;;17.20;10.90;;;;;;;5.17;100.00;97936.20;3769672;78;77389;-27
2021/04/10 05:43:55;;;;;;;18.67;12.03;;;;;;;5.21;100.00;97949.64;3746296;78;43401;-27
2021/04/10 05:49:00;;;;;;;20.63;12.70;;;;;;;5.25;100.00;97960.38;3749086;77;43366;-26
2021/04/10 05:54:08;;;;;;;17.77;12.23;;;;;;;5.25;100.00;97963.05;3739707;78;77360;-27
2021/04/10 05:59:14;;;;;;;20.45;13.00;;;;;;;5.30;100.00;97964.47;3740787;78;69228;-24
2021/04/10 06:04:20;;;;;;;21.90;13.37;;;;;;;5.24;100.00;97960.53;3735282;78;43682;-24
2021/04/10 06:09:26;;;;;;;19.23;13.23;;;;;;;5.28;100.00;97966.43;3729307;78;43412;-24
2021/04/10 06:14:31;;;;;;;18.50;12.87;;;;;;;5.32;100.00;97973.20;3649893;80;44012;-23
2021/04/10 06:19:38;;;;;;;19.33;12.90;;;;;;;5.31;100.00;97972.84;3741377;78;43111;-23
2021/04/10 06:24:45;;;;;;;20.67;13.40;;;;;;;5.33;100.00;97981.05;3617396;79;43683;-25
2021/04/10 06:29:51;;;;;;;21.40;13.13;;;;;;;5.32;100.00;97986.55;3650039;80;43356;-24
2021/04/10 06:34:57;;;;;;;22.50;13.63;;;;;;;5.46;100.00;97982.14;3736300;78;44050;-24
2021/04/10 06:40:03;;;;;;;19.95;12.15;;;;;;;5.49;100.00;97988.52;3610228;80;44457;-24
2021/04/10 06:45:11;;;;;;;18.20;11.27;;;;;;;5.57;100.00;97989.66;3648659;80;44534;-24
2021/04/10 06:50:17;;;;;;;18.00;12.43;;;;;;;5.60;100.00;97986.21;3583813;81;43997;-23
2021/04/10 06:55:26;;;;;;;18.63;12.50;;;;;;;5.63;100.00;97989.95;3645847;80;43726;-23
2021/04/10 07:00:33;;;;;;;19.73;12.83;;;;;;;5.68;100.00;97992.20;3741388;78;44161;-23
2021/04/10 07:05:39;;;;;;;23.97;14.43;;;;;;;5.72;100.00;97989.58;3743671;78;43439;-24
2021/04/10 07:10:45;;;;;;;22.10;13.77;;;;;;;5.76;100.00;97996.84;3743516;78;73317;-24
2021/04/10 07:15:51;;;;;;;23.85;14.75;;;;;;;5.82;100.00;98002.95;3728030;78;43363;-23
2021/04/10 07:21:15;;;;;;;21.33;13.75;;;;;;;5.89;100.00;98007.23;3723013;78;44044;-23
2021/04/10 07:26:23;;;;;;;21.05;14.33;;;;;;;5.97;100.00;98012.23;3650452;80;43362;-24
2021/04/10 07:31:33;;;;;;;21.87;14.57;;;;;;;6.01;100.00;98020.84;3577118;81;43673;-23
2021/04/10 07:36:39;;;;;;;22.20;14.60;;;;;;;6.04;100.00;98027.25;3736186;78;43669;-24
2021/04/10 07:41:45;;;;;;;22.97;13.93;;;;;;;6.09;100.00;98032.17;3638121;80;43344;-24
2021/04/10 07:46:55;;;;;;;20.53;12.97;;;;;;;6.08;100.00;98034.48;3651958;80;43303;-23
2021/04/10 07:52:04;;;;;;;20.10;13.63;;;;;;;6.10;100.00;98041.38;3583908;81;43677;-23
2021/04/10 07:57:12;;;;;;;21.23;14.23;;;;;;;6.10;100.00;98048.06;3739792;78;44026;-23
2021/04/10 08:02:19;;;;;;;21.40;14.43;;;;;;;6.10;100.00;98046.72;3743415;78;43719;-23
2021/04/10 08:07:29;;;;;;;20.30;13.37;;;;;;;6.03;100.00;98055.45;3744979;78;43666;-24
2021/04/10 08:12:37;;;;;;;23.30;14.73;;;;;;;6.08;100.00;98055.38;3740003;78;73286;-24
2021/04/10 08:17:44;;;;;;;21.80;13.97;;;;;;;6.17;100.00;98062.54;3742466;78;43424;-24
2021/04/10 08:22:51;;;;;;;20.50;13.53;;;;;;;6.14;100.00;98065.52;3742464;78;73456;-24
2021/04/10 08:27:58;;;;;;;22.32;14.75;;;;;;;6.27;100.00;98081.77;3737474;78;44023;-23
2021/04/10 08:33:04;;;;;;;24.50;14.93;;;;;;;6.28;100.00;98088.81;3740103;78;43682;-24
2021/04/10 08:38:12;;;;;;;23.57;15.23;;;;;;;6.36;100.00;98094.29;3744781;78;44030;-24
2021/04/10 08:43:19;;;;;;;22.62;14.43;;;;;;;6.50;100.00;98100.19;3748441;78;43683;-24
2021/04/10 08:48:27;;;;;;;23.22;14.87;;;;;;;6.56;100.00;98099.12;3744958;78;44019;-25
2021/04/10 08:53:36;;;;;;;24.70;15.50;;;;;;;6.67;100.00;98106.13;3739236;78;44075;-23
2021/04/10 08:58:42;;;;;;;20.93;13.10;;;;;;;6.66;100.00;98109.79;3747144;78;43349;-23
2021/04/10 09:03:52;;;;;;;22.50;15.37;;;;;;;6.75;100.00;98107.61;3745817;78;43451;-23
2021/04/10 09:09:18;;;;;;;19.92;13.10;;;;;;;6.85;100.00;98116.11;3746943;78;44085;-23
2021/04/10 09:14:43;;;;;;;20.02;13.75;;;;;;;6.85;100.00;98118.78;3743806;78;42873;-20
2021/04/10 09:19:56;;;;;;;18.42;12.28;;;;;;;6.90;100.00;98120.04;3745210;78;43718;-20
2021/04/10 09:25:02;;;;;;;21.60;14.10;;;;;;;7.04;100.00;98127.26;3745058;78;43381;-20
2021/04/10 09:30:09;;;;;;;19.75;13.00;;;;;;;7.08;100.00;98124.62;3746125;78;44082;-20
2021/04/10 09:35:18;;;;;;;20.48;13.70;;;;;;;7.21;100.00;98137.19;3746742;78;43682;-20
2021/04/10 09:40:53;;;;;;;15.38;11.08;;;;;;;7.25;100.00;98143.95;3749564;77;44065;-20
2021/04/10 09:45:59;;;;;;;17.67;12.53;;;;;;;7.34;100.00;98148.94;3766296;77;43677;-20
2021/04/10 09:51:13;;;;;;;19.90;12.77;;;;;;;7.50;100.00;98146.09;3760179;77;43309;-20
2021/04/10 09:56:20;;;;;;;18.42;11.85;;;;;;;7.57;100.00;98155.25;3766698;77;44556;-20
2021/04/10 10:01:31;;;;;;;13.70;9.60;;;;;;;7.56;100.00;98165.63;3764904;77;44061;-20
2021/04/10 10:06:39;;;;;;;13.72;10.03;;;;;;;7.66;100.00;98173.12;3762483;77;43474;-20
2021/04/10 10:11:51;;;;;;;12.50;9.48;;;;;;;7.62;100.00;98171.72;3766465;77;43567;-20
2021/04/10 10:17:09;;;;;;;14.53;9.80;;;;;;;7.63;100.00;98172.06;3766524;77;44000;-20
2021/04/10 10:22:28;;;;;;;13.83;9.88;;;;;;;7.73;100.00;98176.53;3762413;77;44161;-20
2021/04/10 10:27:37;;;;;;;12.10;9.03;;;;;;;7.77;100.00;98176.59;3766398;77;44554;-24
2021/04/10 10:32:46;;;;;;;12.73;9.15;;;;;;;7.83;100.00;98180.00;3761816;77;44014;-24
2021/04/10 10:37:52;;;;;;;16.42;10.30;;;;;;;7.94;100.00;98179.79;3765875;77;43670;-24
2021/04/10 10:43:06;;;;;;;26.25;18.90;;;;;;;8.04;100.00;98182.94;3756156;77;43658;-24
2021/04/10 10:48:26;;;;;;;15.13;10.58;;;;;;;8.12;100.00;98189.21;3746694;78;44441;-24
2021/04/10 10:53:34;;;;;;;14.63;10.53;;;;;;;8.32;100.00;98187.23;3744450;78;44026;-24
2021/04/10 10:58:46;;;;;;;16.12;9.88;;;;;;;8.44;100.00;98185.67;3742857;78;43764;-24
2021/04/10 11:03:55;;;;;;;13.85;10.75;;;;;;;8.59;100.00;98188.20;3744911;78;44541;-25
2021/04/10 11:09:04;;;;;;;13.07;9.93;;;;;;;8.54;100.00;98185.63;3744143;78;43471;-24
2021/04/10 11:14:11;;;;;;;13.08;10.13;;;;;;;8.59;100.00;98186.86;3732649;78;44068;-24
2021/04/10 11:19:27;;;;;;;14.58;11.08;;;;;;;8.79;100.00;98177.27;3724264;78;44052;-24
2021/04/10 11:24:38;;;;;;;17.30;11.18;;;;;;;8.83;100.00;98180.00;3746204;78;44052;-26
2021/04/10 11:29:53;;;;;;;15.13;11.38;;;;;;;9.01;100.00;98176.41;3743850;78;43697;-23
2021/04/10 11:35:08;;;;;;;14.93;11.55;;;;;;;9.24;100.00;98177.58;3746239;78;43717;-24
2021/04/10 11:40:25;;;;;;;17.25;12.40;;;;;;;9.44;100.00;98177.38;3741674;78;43693;-24
2021/04/10 11:45:35;;;;;;;16.87;12.40;;;;;;;9.66;100.00;98179.15;3745658;78;43396;-24
2021/04/10 11:50:51;;;;;;;17.35;12.88;;;;;;;9.66;100.00;98175.94;3745731;78;43665;-25
2021/04/10 11:56:00;;;;;;;16.48;12.18;;;;;;;10.11;100.00;98173.91;3744913;78;44404;-25
2021/04/10 12:01:10;;;;;;;19.05;12.40;;;;;;;10.40;100.00;98174.02;3739590;78;43365;-25
2021/04/10 12:06:34;;;;;;;16.07;12.35;;;;;;;10.39;100.00;98168.30;3628423;80;43686;-20
2021/04/10 12:11:42;;;;;;;16.30;13.08;;;;;;;10.62;100.00;98170.33;3642728;80;44015;-25
2021/04/10 12:16:48;;;;;;;15.15;12.50;;;;;;;11.03;100.00;98174.34;3584560;81;42820;-20
2021/04/10 12:21:55;;;;;;;16.97;12.63;;;;;;;10.88;100.00;98171.98;3731490;78;43251;-25
2021/04/10 12:27:01;;;;;;;17.80;12.95;;;;;;;10.66;100.00;98178.91;3730939;78;44033;-25
2021/04/10 12:32:20;;;;;;;13.58;10.63;;;;;;;10.89;100.00;98170.48;3726983;78;44075;-25
2021/04/10 12:37:29;;;;;;;15.98;11.38;;;;;;;11.12;100.00;98170.27;3739061;78;43672;-26
2021/04/10 12:42:35;;;;;;;12.70;10.60;;;;;;;11.57;100.00;98178.28;3622288;80;44051;-25
2021/04/10 12:47:44;;;;;;;14.38;11.20;;;;;;;11.04;100.00;98176.55;3608914;80;44142;-25
2021/04/10 12:52:51;;;;;;;13.77;10.63;;;;;;;10.91;100.00;98170.30;3647201;80;43484;-25
2021/04/10 12:57:57;;;;;;;13.38;11.03;;;;;;;10.92;100.00;98171.98;3588975;81;43706;-27
2021/04/10 13:03:06;;;;;;;16.73;12.85;;;;;;;11.23;100.00;98175.34;3729802;78;43661;-26
2021/04/10 13:08:12;;;;;;;16.27;13.05;;;;;;;11.21;100.00;98170.09;3723876;78;43250;-25
2021/04/10 13:13:20;;;;;;;17.32;13.50;;;;;;;11.04;100.00;98162.55;3734829;78;44027;-25
2021/04/10 13:18:26;;;;;;;16.12;13.15;;;;;;;10.91;100.00;98172.52;3747320;78;44385;-25
2021/04/10 13:23:32;;;;;;;16.00;12.60;;;;;;;10.65;100.00;98168.62;3741685;78;44083;-26
2021/04/10 13:28:38;;;;;;;18.02;13.75;;;;;;;10.61;100.00;98166.77;3746880;78;43281;-25
2021/04/10 13:33:45;;;;;;;19.10;13.88;;;;;;;10.40;100.00;98164.59;3742068;78;44102;-24
2021/04/10 13:38:51;;;;;;;18.05;14.28;;;;;;;10.31;100.00;98166.39;3744682;78;43042;-25
2021/04/10 13:43:58;;;;;;;17.02;13.68;;;;;;;10.24;100.00;98157.80;3751041;77;44078;-24
2021/04/10 13:49:08;;;;;;;17.37;13.30;;;;;;;10.11;100.00;98162.32;3710366;79;43337;-24
2021/04/10 13:54:14;;;;;;;17.42;13.62;;;;;;;10.18;100.00;98157.43;3708222;79;43754;-24
2021/04/10 13:59:20;;;;;;;21.68;15.55;;;;;;;10.14;100.00;98152.06;3711163;79;44594;-24
2021/04/10 14:04:31;;;;;;;20.68;15.40;;;;;;;10.02;100.00;98152.03;3707243;79;43322;-24
2021/04/10 14:09:37;;;;;;;19.00;14.85;;;;;;;9.96;100.00;98153.53;3711988;79;44050;-25
2021/04/10 14:14:44;;;;;;;21.33;15.32;;;;;;;9.89;100.00;98140.89;3618586;80;43661;-25
2021/04/10 14:19:53;;;;;;;20.92;15.40;;;;;;;9.81;100.00;98142.56;3708777;79;44061;-25
2021/04/10 14:24:59;;;;;;;21.90;16.32;;;;;;;9.83;100.00;98132.45;3709646;79;44150;-25
2021/04/10 14:30:08;;;;;;;21.05;16.80;;;;;;;9.95;100.00;98132.15;3617892;81;43690;-25
2021/04/10 14:35:18;;;;;;;21.30;16.93;;;;;;;9.93;100.00;98124.77;3709635;79;43973;-25
2021/04/10 14:40:25;;;;;;;25.95;18.57;;;;;;;9.63;100.00;98116.26;3709887;79;44039;-25
2021/04/10 14:45:32;;;;;;;23.62;17.90;;;;;;;9.75;100.00;98112.78;3656836;80;43672;-25
2021/04/10 14:50:39;;;;;;;24.55;18.30;;;;;;;9.66;100.00;98119.97;3651846;80;44042;-25
2021/04/10 14:55:45;;;;;;;25.15;17.70;;;;;;;9.49;100.00;98116.38;3587707;81;43332;-25
2021/04/10 15:00:51;;;;;;;24.07;18.37;;;;;;;9.39;100.00;98119.19;3771708;78;43310;-25
2021/04/10 15:06:00;;;;;;;24.23;18.82;;;;;;;9.41;100.00;98116.67;3658901;80;44016;-25
2021/04/10 15:11:09;;;;;;;26.62;19.77;;;;;;;9.32;100.00;98112.27;3585997;81;43643;-25
2021/04/10 15:16:15;;;;;;;25.88;20.15;;;;;;;9.33;100.00;98102.38;3739707;78;44023;-25
2021/04/10 15:21:22;;;;;;;26.52;19.10;;;;;;;9.40;100.00;98096.19;3733672;78;43341;-25
2021/04/10 15:26:29;;;;;;;27.48;19.07;;;;;;;9.31;100.00;98086.90;3742240;78;43489;-25
2021/04/10 15:31:43;;;;;;;25.37;19.23;;;;;;;9.35;100.00;98089.62;3735262;78;44457;-25
2021/04/10 15:36:49;;;;;;;25.45;19.35;;;;;;;9.33;100.00;98085.73;3744300;78;43707;-25
2021/04/10 15:41:55;;;;;;;25.43;19.62;;;;;;;9.28;100.00;98078.67;3746555;78;43704;-25
2021/04/10 15:47:01;;;;;;;25.88;19.27;;;;;;;9.23;100.00;98075.61;3742946;78;44070;-25
2021/04/10 15:52:08;;;;;;;25.15;18.45;;;;;;;9.27;100.00;98066.71;3739532;78;44011;-25
2021/04/10 15:57:14;;;;;;;23.10;18.48;;;;;;;9.24;100.00;98061.99;3741663;78;43378;-25
2021/04/10 16:02:23;;;;;;;23.45;18.55;;;;;;;9.28;100.00;98056.30;3737780;78;43734;-25
2021/04/10 16:07:29;;;;;;;21.95;17.48;;;;;;;9.42;100.00;98048.97;3734766;78;44025;-25
2021/04/10 16:12:35;;;;;;;24.05;17.30;;;;;;;9.44;100.00;98048.30;3730239;78;43673;-25
2021/04/10 16:17:41;;;;;;;21.33;16.62;;;;;;;9.47;100.00;98043.92;3734375;78;43249;-25
2021/04/10 16:22:49;;;;;;;24.47;16.67;;;;;;;9.48;100.00;98044.27;3726077;78;43374;-25
2021/04/10 16:27:57;;;;;;;21.75;16.57;;;;;;;9.47;100.00;98037.20;3729065;78;43685;-25
2021/04/10 16:33:03;;;;;;;22.48;16.82;;;;;;;9.41;100.00;98031.15;3723156;78;43423;-25
2021/04/10 16:38:09;;;;;;;20.85;15.48;;;;;;;9.40;100.00;98024.08;3721891;78;43701;-24
2021/04/10 16:43:15;;;;;;;20.43;16.40;;;;;;;9.33;100.00;98024.41;3730771;78;43216;-24
2021/04/10 16:48:22;;;;;;;21.35;16.75;;;;;;;9.30;100.00;98020.70;3729618;78;43413;-26
2021/04/10 16:53:28;;;;;;;20.97;16.75;;;;;;;9.16;100.00;98024.34;3777035;78;44436;-24
2021/04/10 16:58:34;;;;;;;21.42;16.93;;;;;;;9.17;100.00;98029.23;3747972;78;44380;-24
2021/04/10 17:03:41;;;;;;;22.48;17.57;;;;;;;9.18;100.00;98018.31;3749947;78;43409;-25
2021/04/10 17:08:47;;;;;;;21.00;15.93;;;;;;;9.13;100.00;98019.28;3751222;78;44081;-25
2021/04/10 17:13:53;;;;;;;20.62;16.25;;;;;;;9.10;100.00;98019.63;3747456;78;44066;-25
2021/04/10 17:18:59;;;;;;;21.12;16.48;;;;;;;9.05;100.00;98017.91;3753153;78;43588;-25
2021/04/10 17:24:07;;;;;;;20.57;15.13;;;;;;;8.99;100.00;98009.17;3745746;78;43353;-24
2021/04/10 17:29:15;;;;;;;22.77;16.95;;;;;;;8.95;100.00;98009.97;3745914;78;43468;-24
2021/04/10 17:34:21;;;;;;;21.90;15.93;;;;;;;8.91;100.00;98008.62;3742498;78;44062;-25
2021/04/10 17:39:27;;;;;;;21.45;16.45;;;;;;;8.81;100.00;97998.00;3742992;78;44041;-24
2021/04/10 17:44:33;;;;;;;20.57;15.98;;;;;;;8.75;100.00;97991.42;3741667;78;43730;-24
2021/04/10 17:49:40;;;;;;;22.62;16.93;;;;;;;8.68;100.00;97992.22;3734311;78;43685;-24
2021/04/10 17:54:47;;;;;;;22.35;16.77;;;;;;;8.59;100.00;97992.19;3746081;78;43542;-24
2021/04/10 17:59:53;;;;;;;22.60;16.42;;;;;;;8.51;100.00;97988.12;3740890;78;43673;-24
2021/04/10 18:04:59;;;;;;;24.87;16.65;;;;;;;8.40;100.00;97989.70;3728923;78;43433;-25
2021/04/10 18:10:08;;;;;;;23.75;16.80;;;;;;;8.22;100.00;97990.57;3734766;78;44220;-24
2021/04/10 18:15:17;;;;;;;23.22;17.00;;;;;;;8.13;100.00;97982.13;3728530;78;43694;-24
2021/04/10 18:20:23;;;;;;;24.47;17.17;;;;;;;8.08;100.00;97982.59;3737049;78;43696;-25
2021/04/10 18:25:30;;;;;;;25.92;17.98;;;;;;;8.06;100.00;97986.41;3724331;78;43327;-24
2021/04/10 18:30:36;;;;;;;26.47;18.33;;;;;;;8.01;100.00;97978.36;3731256;78;77457;-24
2021/04/10 18:35:42;;;;;;;25.80;18.20;;;;;;;7.99;100.00;97975.49;3728601;78;43315;-24
2021/04/10 18:40:51;;;;;;;25.10;17.52;;;;;;;7.95;100.00;97970.91;3733956;78;44035;-25
2021/04/10 18:45:58;;;;;;;23.67;18.20;;;;;;;7.95;100.00;97976.28;3745713;78;43692;-24
2021/04/10 18:51:09;;;;;;;23.95;18.42;;;;;;;7.95;100.00;97973.59;3752275;77;26396;-24
2021/04/10 18:56:17;;;;;;;30.40;19.03;;;;;;;7.95;100.00;97974.94;3737844;78;43120;-24
2021/04/10 19:01:25;;;;;;;27.17;18.52;;;;;;;7.93;100.00;97974.27;3739203;78;44036;-24
2021/04/10 19:06:32;;;;;;;26.83;19.03;;;;;;;7.93;100.00;97975.62;3743727;78;44061;-24
2021/04/10 19:11:41;;;;;;;23.67;18.48;;;;;;;7.88;100.00;97967.18;3741188;78;43694;-24
2021/04/10 19:16:47;;;;;;;27.65;18.67;;;;;;;7.86;100.00;97961.98;3741752;78;43201;-24
2021/04/10 19:21:54;;;;;;;28.20;18.65;;;;;;;7.89;100.00;97959.48;3736042;78;43737;-24
2021/04/10 19:27:00;;;;;;;27.05;19.20;;;;;;;7.87;100.00;97962.81;3737990;78;44043;-23
2021/04/10 19:32:09;;;;;;;25.68;18.60;;;;;;;7.85;100.00;97958.09;3736499;78;44031;-24
2021/04/10 19:37:17;;;;;;;28.57;19.97;;;;;;;7.81;100.00;97960.77;3734500;78;77417;-23
2021/04/10 19:42:24;;;;;;;28.47;19.65;;;;;;;7.79;100.00;97948.83;3734174;78;43325;-25
2021/04/10 19:47:32;;;;;;;31.33;20.75;;;;;;;7.78;100.00;97951.69;3744416;77;77419;-23
2021/04/10 19:52:38;;;;;;;28.55;20.40;;;;;;;7.81;100.00;97956.74;3708697;79;77405;-25
2021/04/10 19:57:44;;;;;;;28.38;20.50;;;;;;;7.82;100.00;97958.43;3711403;79;43240;-23
2021/04/10 20:02:50;;;;;;;31.05;21.48;;;;;;;7.79;100.00;97954.20;3622914;81;44031;-24
2021/04/10 20:07:56;;;;;;;27.58;20.52;;;;;;;7.79;100.00;97954.71;3621130;81;44065;-23
2021/04/10 20:13:03;;;;;;;28.02;20.23;;;;;;;7.78;100.00;97956.53;3683258;79;77831;-23
2021/04/10 20:18:09;;;;;;;30.62;20.37;;;;;;;7.69;100.00;97944.06;3620240;81;43707;-23
2021/04/10 20:23:21;;;;;;;27.75;18.62;;;;;;;7.64;100.00;97944.53;3709557;79;43674;-26
2021/04/10 20:28:29;;;;;;;31.60;21.30;;;;;;;7.63;100.00;97946.86;3709936;79;77392;-24
2021/04/10 20:33:35;;;;;;;31.00;21.42;;;;;;;7.61;100.00;97938.13;3709362;79;44154;-23
2021/04/10 20:38:42;;;;;;;31.85;22.32;;;;;;;7.58;100.00;97937.12;3712711;79;43324;-23
2021/04/10 20:43:48;;;;;;;34.53;22.62;;;;;;;7.50;100.00;97920.94;3723147;79;43941;-23
2021/04/10 20:48:55;;;;;;;34.05;22.42;;;;;;;7.51;100.00;97921.29;3710041;78;43706;-23
2021/04/10 20:54:01;;;;;;;31.43;22.60;;;;;;;7.51;100.00;97913.25;3720753;79;43069;-23
2021/04/10 20:59:08;;;;;;;32.78;23.52;;;;;;;7.54;100.00;97920.98;3715282;79;43686;-23
2021/04/10 21:04:14;;;;;;;33.53;24.10;;;;;;;7.54;100.00;97920.98;3722128;79;44188;-26
2021/04/10 21:09:20;;;;;;;32.27;23.60;;;;;;;7.57;100.00;97916.66;3719359;79;43423;-23
2021/04/10 21:14:26;;;;;;;34.18;24.07;;;;;;;7.59;100.00;97910.63;3709666;79;77472;-24
2021/04/10 21:19:33;;;;;;;33.55;24.15;;;;;;;7.61;100.00;97901.11;3715564;79;43458;-24
2021/04/10 21:24:39;;;;;;;34.53;22.93;;;;;;;7.59;100.00;97894.54;3713539;79;43678;-24
2021/04/10 21:29:47;;;;;;;35.75;23.95;;;;;;;7.60;100.00;97894.89;3715678;79;43362;-24
2021/04/10 21:34:53;;;;;;;35.52;24.70;;;;;;;7.60;100.00;97888.19;3709635;79;43669;-23
2021/04/10 21:40:00;;;;;;;35.70;24.70;;;;;;;7.61;100.00;97881.00;3709933;79;44799;-25
2021/04/10 21:45:10;;;;;;;33.30;23.65;;;;;;;7.62;100.00;97876.81;3708010;79;43507;-24
2021/04/10 21:50:18;;;;;;;38.38;26.65;;;;;;;7.63;100.00;97873.14;3710402;79;43530;-25
2021/04/10 21:55:24;;;;;;;39.48;26.05;;;;;;;7.67;100.00;97869.64;3707430;79;43396;-25
2021/04/10 22:00:53;;;;;;;36.03;25.97;;;;;;;7.68;100.00;97874.86;3708822;79;43704;-25
2021/04/10 22:06:01;;;;;;;39.45;27.20;;;;;;;7.69;100.00;97868.51;3710182;79;43695;-25
2021/04/10 22:11:08;;;;;;;36.53;26.50;;;;;;;7.71;100.00;97872.36;3708232;79;43270;-25
2021/04/10 22:16:15;;;;;;;36.75;25.92;;;;;;;7.71;100.00;97865.14;3707873;79;43733;-23
2021/04/10 22:21:25;;;;;;;37.83;25.27;;;;;;;7.72;100.00;97863.33;3704607;79;44003;-25
2021/04/10 22:26:32;;;;;;;39.98;26.70;;;;;;;7.74;100.00;97865.35;3708755;79;43978;-25
2021/04/10 22:31:42;;;;;;;39.13;27.42;;;;;;;7.75;100.00;97864.84;3722627;79;43673;-24
2021/04/10 22:36:48;;;;;;;37.03;25.95;;;;;;;7.74;100.00;97860.47;3726898;79;44023;-24
2021/04/10 22:41:56;;;;;;;37.80;26.65;;;;;;;7.76;100.00;97855.80;3707513;79;73275;-27
2021/04/10 22:47:03;;;;;;;39.78;26.95;;;;;;;7.74;100.00;97851.95;3711188;76;43037;-29
2021/04/10 22:52:10;;;;;;;37.40;26.00;;;;;;;7.77;100.00;97843.56;3735963;78;43357;-28
2021/04/10 22:57:16;;;;;;;37.00;27.00;;;;;;;7.81;100.00;97830.70;3734112;78;43271;-27
2021/04/10 23:02:21;;;;;;;35.47;24.70;;;;;;;7.87;100.00;97832.73;3731553;78;44038;-27
2021/04/10 23:07:27;;;;;;;34.85;25.57;;;;;;;7.90;100.00;97816.82;3731571;78;44041;-27
2021/04/10 23:12:34;;;;;;;36.80;25.40;;;;;;;7.95;100.00;97830.61;3731063;78;43549;-27
2021/04/10 23:17:39;;;;;;;37.55;25.17;;;;;;;7.96;100.00;97827.76;3730108;78;43160;-27
2021/04/10 23:22:46;;;;;;;36.43;25.97;;;;;;;8.05;100.00;97822.45;3729270;78;43065;-27
2021/04/10 23:27:52;;;;;;;35.48;25.08;;;;;;;8.08;100.00;97808.70;3730937;78;44057;-27
2021/04/10 23:33:03;;;;;;;33.48;23.22;;;;;;;8.10;100.00;97800.86;3728060;78;42965;-27
2021/04/10 23:38:10;;;;;;;35.85;25.08;;;;;;;8.11;100.00;97794.97;3726539;78;44413;-27
2021/04/10 23:43:18;;;;;;;33.53;23.65;;;;;;;8.12;100.00;97784.06;3733900;78;44778;-27